Time;durP1;ratioP1;P1;durP2;ratioP2;P2;SDS_P1;SDS_P2;PMS_P1;PMS_P2;Temp;Humidity;BMP_temperature;BMP_pressure;BME280_temperature;BME280_humidity;BME280_pressure;Samples;Min_cycle;Max_cycle;Signal;HPM_P1;HPM_P2
2024/01/29 00:01:40;;;;;;;13.73;12.27;;;;;;;3.29;100.00;146883.47;5113284;28;20201;-59
2024/01/29 00:04:07;;;;;;;12.63;11.43;;;;;;;3.19;100.00;146859.56;5113122;28;20279;-59
2024/01/29 00:06:34;;;;;;;13.17;11.93;;;;;;;3.15;100.00;146849.53;5113132;28;20256;-59
2024/01/29 00:09:03;;;;;;;14.10;12.70;;;;;;;3.16;100.00;146852.06;5113519;28;20179;-62
2024/01/29 00:11:30;;;;;;;14.30;12.37;;;;;;;3.24;100.00;146870.88;5113389;28;20188;-61
2024/01/29 00:13:57;;;;;;;12.13;11.13;;;;;;;3.17;100.00;146853.31;5113494;28;20233;-60
2024/01/29 00:16:24;;;;;;;13.90;12.50;;;;;;;3.20;100.00;146862.09;5113321;28;20611;-61
2024/01/29 00:18:51;;;;;;;13.00;11.63;;;;;;;2.98;100.00;146806.81;5112938;28;20278;-61
2024/01/29 00:21:19;;;;;;;14.60;13.13;;;;;;;3.07;100.00;146829.44;5112898;28;20195;-60
2024/01/29 00:23:46;;;;;;;13.50;12.10;;;;;;;2.97;100.00;146804.28;5112847;28;20305;-59
2024/01/29 00:26:14;;;;;;;14.57;13.07;;;;;;;3.01;100.00;146814.34;5113158;28;20630;-60
2024/01/29 00:28:41;;;;;;;13.73;12.30;;;;;;;3.12;100.00;146842.00;5113019;28;20290;-60
2024/01/29 00:31:09;;;;;;;13.43;12.13;;;;;;;3.09;100.00;146833.22;5112661;28;20179;-60
2024/01/29 00:33:36;;;;;;;13.50;12.13;;;;;;;3.18;100.00;146855.84;5112648;28;20194;-59
2024/01/29 00:36:04;;;;;;;14.43;12.93;;;;;;;3.20;100.00;146862.09;5112677;28;20180;-59
2024/01/29 00:38:31;;;;;;;13.87;12.47;;;;;;;3.25;100.00;146873.41;5112527;28;20184;-61
2024/01/29 00:40:59;;;;;;;13.20;11.97;;;;;;;3.12;100.00;146840.75;5112541;28;20240;-60
2024/01/29 00:43:27;;;;;;;12.00;10.93;;;;;;;3.23;100.00;146869.63;5112435;28;20219;-59
2024/01/29 00:45:54;;;;;;;13.43;12.23;;;;;;;3.16;100.00;146852.06;5112410;28;20183;-59
2024/01/29 00:48:23;;;;;;;14.73;13.03;;;;;;;3.06;100.00;146826.91;5112412;28;20190;-59
2024/01/29 00:50:50;;;;;;;13.93;12.60;;;;;;;2.97;100.00;146803.06;5111764;28;20279;-59
2024/01/29 00:53:17;;;;;;;14.13;12.90;;;;;;;3.08;100.00;146831.97;5112326;28;20228;-60
2024/01/29 00:55:45;;;;;;;14.67;12.87;;;;;;;2.97;100.00;146804.28;5112071;28;20288;-59
2024/01/29 00:58:12;;;;;;;15.97;13.53;;;;;;;3.06;100.00;146826.91;5112457;28;20652;-59
2024/01/29 01:00:41;;;;;;;13.53;12.17;;;;;;;2.96;100.00;146800.56;5112243;28;20230;-60
2024/01/29 01:03:09;;;;;;;13.97;12.53;;;;;;;2.99;100.00;146809.34;5112522;28;20288;-60
2024/01/29 01:05:36;;;;;;;17.57;13.07;;;;;;;2.88;100.00;146781.72;5112174;28;20195;-60
2024/01/29 01:08:03;;;;;;;13.77;12.13;;;;;;;3.06;100.00;146826.91;5112425;28;20229;-60
2024/01/29 01:10:31;;;;;;;14.50;13.00;;;;;;;2.90;100.00;146786.72;5112515;28;20183;-60
2024/01/29 01:12:58;;;;;;;14.73;13.17;;;;;;;2.98;100.00;146805.56;5112452;28;20561;-59
2024/01/29 01:15:25;;;;;;;14.37;12.97;;;;;;;2.98;100.00;146806.81;5112134;28;20304;-61
2024/01/29 01:17:53;;;;;;;13.80;12.57;;;;;;;3.07;100.00;146829.44;5112092;28;20303;-61
2024/01/29 01:20:20;;;;;;;13.93;12.60;;;;;;;3.03;100.00;146819.38;5112050;28;20205;-60
2024/01/29 01:22:47;;;;;;;13.70;12.30;;;;;;;3.04;100.00;146821.91;5112286;28;20617;-59
2024/01/29 01:25:14;;;;;;;14.70;13.20;;;;;;;3.04;100.00;146820.66;5111948;28;20248;-59
2024/01/29 01:27:42;;;;;;;13.77;10.70;;;;;;;3.08;100.00;146831.97;5112212;28;20615;-59
2024/01/29 01:30:09;;;;;;;12.93;11.70;;;;;;;3.08;100.00;146830.69;5111958;28;20232;-60
2024/01/29 01:32:36;;;;;;;13.20;11.90;;;;;;;3.04;100.00;146821.91;5112120;28;20197;-60
2024/01/29 01:35:05;;;;;;;15.50;12.57;;;;;;;3.10;100.00;146836.97;5112222;28;20184;-60
2024/01/29 01:37:33;;;;;;;12.77;11.53;;;;;;;3.00;100.00;146811.88;5111818;28;20238;-60
2024/01/29 01:40:00;;;;;;;13.17;11.97;;;;;;;3.06;100.00;146826.91;5111742;28;20187;-59
2024/01/29 01:42:27;;;;;;;13.77;11.83;;;;;;;2.96;100.00;146801.81;5111809;28;20183;-59
2024/01/29 01:44:54;;;;;;;13.23;11.97;;;;;;;3.03;100.00;146818.13;5112069;28;20248;-59
2024/01/29 01:47:21;;;;;;;15.70;12.53;;;;;;;3.06;100.00;146826.91;5111619;28;20195;-60
2024/01/29 01:49:49;;;;;;;12.90;11.77;;;;;;;3.12;100.00;146840.75;5111755;28;20236;-59
2024/01/29 01:52:20;;;;;;;13.33;12.03;;;;;;;3.14;100.00;146847.00;5111856;28;20187;-60
2024/01/29 01:54:48;;;;;;;13.37;12.07;;;;;;;3.13;100.00;146844.53;5111483;28;20269;-61
2024/01/29 01:57:16;;;;;;;13.27;12.07;;;;;;;2.98;100.00;146805.56;5111876;28;20245;-60
2024/01/29 01:59:43;;;;;;;13.47;12.20;;;;;;;3.01;100.00;146813.13;5112001;28;20244;-59
2024/01/29 02:02:11;;;;;;;12.53;11.33;;;;;;;2.92;100.00;146790.50;5115026;28;20248;-61
2024/01/29 02:04:38;;;;;;;13.77;12.57;;;;;;;2.99;100.00;146809.34;5115483;28;20204;-61
2024/01/29 02:07:05;;;;;;;12.77;11.63;;;;;;;2.89;100.00;146782.94;5115796;28;20252;-59
2024/01/29 02:09:34;;;;;;;11.10;10.00;;;;;;;2.84;100.00;146771.69;5115351;28;20191;-60
2024/01/29 02:12:02;;;;;;;12.77;11.57;;;;;;;2.92;100.00;146790.50;5115403;28;20179;-60
2024/01/29 02:14:29;;;;;;;13.13;11.90;;;;;;;2.91;100.00;146788.00;5115372;28;20184;-59
2024/01/29 02:16:56;;;;;;;13.57;12.17;;;;;;;2.78;100.00;146756.59;5115520;28;20184;-59
2024/01/29 02:19:23;;;;;;;12.93;11.63;;;;;;;2.90;100.00;146786.72;5115210;28;20191;-59
2024/01/29 02:21:50;;;;;;;12.70;11.47;;;;;;;3.00;100.00;146811.88;5115199;28;20248;-60
2024/01/29 02:24:19;;;;;;;13.13;11.90;;;;;;;2.94;100.00;146795.50;5115078;28;20252;-60
2024/01/29 02:26:48;;;;;;;14.37;12.03;;;;;;;3.00;100.00;146810.59;5115442;28;20695;-61
2024/01/29 02:29:15;;;;;;;12.10;10.87;;;;;;;2.71;100.00;146740.28;5115327;28;20612;-59
2024/01/29 02:31:42;;;;;;;12.27;11.17;;;;;;;2.84;100.00;146771.69;5114983;28;20187;-60
2024/01/29 02:34:09;;;;;;;12.37;11.07;;;;;;;2.88;100.00;146781.72;5115136;28;20646;-59
2024/01/29 02:36:36;;;;;;;14.87;11.53;;;;;;;2.84;100.00;146770.41;5114916;28;20223;-60
2024/01/29 02:39:04;;;;;;;11.63;10.67;;;;;;;2.89;100.00;146784.19;5114991;28;20699;-61
2024/01/29 02:41:32;;;;;;;12.43;11.17;;;;;;;2.80;100.00;146761.59;5114795;28;20194;-59
2024/01/29 02:43:59;;;;;;;12.67;11.37;;;;;;;2.87;100.00;146777.94;5114612;28;20203;-61
2024/01/29 02:46:26;;;;;;;12.67;11.07;;;;;;;2.78;100.00;146756.59;5115033;27;20638;-60
2024/01/29 02:48:53;;;;;;;13.93;12.53;;;;;;;2.85;100.00;146774.16;5115022;28;20610;-60
2024/01/29 02:51:20;;;;;;;13.17;11.20;;;;;;;2.89;100.00;146782.94;5114963;28;20554;-59
2024/01/29 02:53:47;;;;;;;11.60;10.60;;;;;;;2.92;100.00;146791.78;5114596;28;20184;-60
2024/01/29 02:56:14;;;;;;;11.63;10.57;;;;;;;2.92;100.00;146791.78;5114334;28;20292;-59
2024/01/29 02:58:43;;;;;;;11.30;10.13;;;;;;;2.97;100.00;146804.28;5114837;28;20562;-60
2024/01/29 03:01:10;;;;;;;11.70;10.50;;;;;;;2.99;100.00;146808.09;5114465;28;20179;-60
2024/01/29 03:03:37;;;;;;;12.20;10.87;;;;;;;3.03;100.00;146819.38;5114951;28;20264;-60
2024/01/29 03:06:05;;;;;;;11.33;10.27;;;;;;;3.10;100.00;146836.97;5114699;28;20506;-61
2024/01/29 03:08:32;;;;;;;11.43;10.53;;;;;;;3.15;100.00;146848.25;5114314;28;20187;-60
2024/01/29 03:10:59;;;;;;;11.67;10.53;;;;;;;3.14;100.00;146847.00;5114552;28;20192;-60
2024/01/29 03:13:26;;;;;;;11.77;10.67;;;;;;;3.16;100.00;146852.06;5113480;28;20180;-60
2024/01/29 03:15:54;;;;;;;11.23;10.30;;;;;;;2.95;100.00;146798.03;5114122;27;20244;-59
2024/01/29 03:18:21;;;;;;;11.60;10.50;;;;;;;3.11;100.00;146838.22;5114053;28;20199;-60
2024/01/29 03:20:48;;;;;;;12.23;10.97;;;;;;;3.08;100.00;146831.97;5114398;28;20187;-59
2024/01/29 03:23:15;;;;;;;11.33;10.43;;;;;;;3.06;100.00;146826.91;5113855;28;20184;-59
2024/01/29 03:25:42;;;;;;;12.23;11.13;;;;;;;3.07;100.00;146829.44;5113951;28;20179;-60
2024/01/29 03:28:09;;;;;;;13.07;11.90;;;;;;;3.16;100.00;146852.06;5114186;28;20184;-59
2024/01/29 03:30:37;;;;;;;12.73;11.57;;;;;;;3.24;100.00;146870.88;5114041;28;20200;-59
2024/01/29 03:33:05;;;;;;;12.33;11.17;;;;;;;3.25;100.00;146872.16;5113823;27;20179;-59
2024/01/29 03:35:32;;;;;;;13.03;11.73;;;;;;;3.23;100.00;146868.34;5113720;28;20183;-59
2024/01/29 03:37:59;;;;;;;12.63;11.40;;;;;;;3.33;100.00;146892.25;5114024;28;20188;-60
2024/01/29 03:40:26;;;;;;;12.50;11.20;;;;;;;3.22;100.00;146867.09;5113623;28;20183;-60
2024/01/29 03:42:54;;;;;;;11.57;10.60;;;;;;;3.23;100.00;146869.63;5113942;28;20191;-60
2024/01/29 03:45:21;;;;;;;12.03;11.03;;;;;;;3.17;100.00;146854.56;5113451;28;20279;-58
2024/01/29 03:47:48;;;;;;;12.43;11.17;;;;;;;3.16;100.00;146852.06;5113742;28;20187;-58
2024/01/29 03:50:16;;;;;;;11.40;10.50;;;;;;;3.09;100.00;146834.47;5113402;28;20232;-61
2024/01/29 03:52:44;;;;;;;10.90;10.00;;;;;;;2.97;100.00;146803.06;5113779;28;20195;-59
2024/01/29 03:55:11;;;;;;;11.80;10.87;;;;;;;3.08;100.00;146831.97;5113218;28;20711;-59
2024/01/29 03:57:39;;;;;;;15.50;11.40;;;;;;;3.01;100.00;146814.34;5113266;28;20184;-59
2024/01/29 04:00:09;;;;;;;11.80;10.80;;;;;;;3.11;100.00;146838.22;5113222;28;20184;-60
2024/01/29 04:02:36;;;;;;;10.63;9.80;;;;;;;3.08;100.00;146830.69;5113444;28;20195;-60
2024/01/29 04:05:03;;;;;;;11.63;10.73;;;;;;;2.94;100.00;146796.78;5113108;28;20267;-61
2024/01/29 04:07:32;;;;;;;11.23;10.13;;;;;;;2.81;100.00;146764.13;5113163;28;20335;-60
2024/01/29 04:09:59;;;;;;;10.27;9.27;;;;;;;3.01;100.00;146814.34;5113158;28;20566;-59
2024/01/29 04:12:26;;;;;;;11.60;10.43;;;;;;;3.04;100.00;146821.91;5113366;28;20207;-60
2024/01/29 04:14:53;;;;;;;10.70;9.77;;;;;;;2.88;100.00;146780.47;5113004;28;20248;-60
2024/01/29 04:17:20;;;;;;;10.30;9.53;;;;;;;2.75;100.00;146749.06;5113004;28;20613;-59
2024/01/29 04:19:47;;;;;;;10.30;9.33;;;;;;;2.66;100.00;146727.72;5112905;28;20179;-60
2024/01/29 04:22:14;;;;;;;10.77;9.80;;;;;;;2.76;100.00;146751.53;5112942;28;20722;-60
2024/01/29 04:24:42;;;;;;;9.40;8.60;;;;;;;2.79;100.00;146759.13;5112136;28;20669;-60
2024/01/29 04:27:09;;;;;;;8.27;7.77;;;;;;;2.53;100.00;146693.81;5113106;28;20619;-59
2024/01/29 04:29:37;;;;;;;9.13;8.53;;;;;;;2.64;100.00;146721.41;5112671;28;20187;-59
2024/01/29 04:32:04;;;;;;;9.30;8.47;;;;;;;2.61;100.00;146713.91;5113016;28;20710;-59
2024/01/29 04:34:31;;;;;;;8.67;8.17;;;;;;;2.76;100.00;146751.53;5112597;28;20194;-59
2024/01/29 04:36:58;;;;;;;9.07;8.37;;;;;;;2.74;100.00;146747.81;5112920;28;20634;-59
2024/01/29 04:39:25;;;;;;;8.43;7.73;;;;;;;2.62;100.00;146717.69;5112848;28;20630;-59
2024/01/29 04:41:54;;;;;;;8.87;8.37;;;;;;;2.76;100.00;146751.53;5112720;28;20186;-59
2024/01/29 04:44:21;;;;;;;9.37;8.40;;;;;;;2.58;100.00;146707.63;5112390;28;20690;-59
2024/01/29 04:46:48;;;;;;;10.43;8.60;;;;;;;2.68;100.00;146731.47;5112372;28;20183;-58
2024/01/29 04:49:15;;;;;;;9.27;8.67;;;;;;;2.76;100.00;146751.53;5112397;28;20183;-58
2024/01/29 04:51:42;;;;;;;9.47;8.67;;;;;;;2.90;100.00;146786.72;5112389;28;20187;-60
2024/01/29 04:54:10;;;;;;;9.07;8.40;;;;;;;2.83;100.00;146769.16;5112203;28;20191;-60
2024/01/29 04:56:37;;;;;;;9.37;8.67;;;;;;;2.96;100.00;146800.56;5112287;28;20191;-59
2024/01/29 04:59:05;;;;;;;8.37;7.77;;;;;;;2.91;100.00;146789.25;5112262;28;20223;-60
2024/01/29 05:01:32;;;;;;;9.63;8.37;;;;;;;2.70;100.00;146736.50;5112264;28;20236;-60
2024/01/29 05:03:59;;;;;;;9.37;8.67;;;;;;;2.66;100.00;146726.47;5112122;28;20256;-59
2024/01/29 05:06:26;;;;;;;9.43;8.80;;;;;;;2.88;100.00;146780.47;5112480;28;20554;-59
2024/01/29 05:08:55;;;;;;;9.33;8.63;;;;;;;2.78;100.00;146756.59;5112416;28;20639;-59
2024/01/29 05:11:22;;;;;;;9.30;8.60;;;;;;;2.83;100.00;146769.16;5112083;28;20187;-58
2024/01/29 05:13:49;;;;;;;8.30;7.80;;;;;;;2.65;100.00;146725.19;5112044;28;20219;-60
2024/01/29 05:16:17;;;;;;;7.77;7.37;;;;;;;2.62;100.00;146716.41;5112280;28;20217;-60
2024/01/29 05:18:45;;;;;;;8.97;8.37;;;;;;;2.67;100.00;146730.19;5112046;28;20183;-59
2024/01/29 05:21:13;;;;;;;10.30;8.73;;;;;;;2.71;100.00;146739.03;5111939;28;20191;-59
2024/01/29 05:23:40;;;;;;;10.03;8.77;;;;;;;2.61;100.00;146713.91;5111893;28;20183;-60
2024/01/29 05:26:07;;;;;;;10.33;9.53;;;;;;;2.75;100.00;146749.06;5112230;28;20669;-60
2024/01/29 05:28:34;;;;;;;9.50;8.57;;;;;;;2.74;100.00;146746.56;5111870;28;20183;-59
2024/01/29 05:31:01;;;;;;;8.87;8.27;;;;;;;2.70;100.00;146737.78;5111884;28;20183;-60
2024/01/29 05:33:29;;;;;;;8.90;8.17;;;;;;;2.74;100.00;146747.81;5112096;28;20723;-60
2024/01/29 05:35:56;;;;;;;9.67;7.90;;;;;;;2.73;100.00;146744.03;5112903;28;20191;-59
2024/01/29 05:38:23;;;;;;;9.43;8.63;;;;;;;2.64;100.00;146722.69;5116223;28;20679;-60
2024/01/29 05:40:50;;;;;;;9.93;8.97;;;;;;;2.67;100.00;146728.97;5116165;28;20179;-61
2024/01/29 05:43:17;;;;;;;9.37;8.57;;;;;;;2.50;100.00;146687.56;5115753;28;20222;-59
2024/01/29 05:45:46;;;;;;;9.07;8.47;;;;;;;2.64;100.00;146721.41;5115919;28;20585;-61
2024/01/29 05:48:13;;;;;;;12.10;8.90;;;;;;;2.80;100.00;146761.59;5116031;27;20219;-61
2024/01/29 05:50:42;;;;;;;12.50;10.03;;;;;;;2.97;100.00;146804.28;5115709;27;20187;-60
2024/01/29 05:53:10;;;;;;;9.40;8.73;;;;;;;2.88;100.00;146781.72;5115534;28;20187;-59
2024/01/29 05:55:37;;;;;;;9.57;8.63;;;;;;;3.01;100.00;146814.34;5115365;28;20260;-59
2024/01/29 05:58:06;;;;;;;9.90;9.23;;;;;;;3.01;100.00;146813.13;5115608;28;20179;-59
2024/01/29 06:00:33;;;;;;;10.27;9.47;;;;;;;3.08;100.00;146830.69;5115532;28;20187;-59
2024/01/29 06:03:00;;;;;;;10.27;9.43;;;;;;;2.97;100.00;146804.28;5115816;28;20194;-59
2024/01/29 06:05:27;;;;;;;10.67;9.80;;;;;;;2.86;100.00;146776.69;5115308;28;20210;-60
2024/01/29 06:07:56;;;;;;;10.33;9.50;;;;;;;2.95;100.00;146799.28;5115314;28;20191;-60
2024/01/29 06:10:23;;;;;;;12.90;11.13;;;;;;;2.92;100.00;146791.78;5115238;28;20190;-59
2024/01/29 06:12:50;;;;;;;10.87;10.00;;;;;;;2.91;100.00;146788.00;5115197;28;20184;-60
2024/01/29 06:15:17;;;;;;;11.17;10.17;;;;;;;2.88;100.00;146781.72;5115166;28;20188;-59
2024/01/29 06:17:44;;;;;;;10.63;9.63;;;;;;;2.87;100.00;146779.22;5115778;28;20183;-58
2024/01/29 06:20:12;;;;;;;10.43;9.50;;;;;;;2.84;100.00;146770.41;5115527;28;20179;-59
2024/01/29 06:22:39;;;;;;;14.90;10.47;;;;;;;2.87;100.00;146777.94;5116064;28;20722;-61
2024/01/29 06:25:26;;;;;;;12.80;10.63;;;;;;;2.89;100.00;146782.94;5115553;27;20219;-59
2024/01/29 06:27:54;;;;;;;10.67;9.67;;;;;;;2.95;100.00;146799.28;5115942;28;20191;-63
2024/01/29 06:30:21;;;;;;;9.97;9.27;;;;;;;2.88;100.00;146781.72;5115867;28;20248;-59
2024/01/29 06:32:48;;;;;;;10.57;9.70;;;;;;;2.99;100.00;146809.34;5115104;27;20251;-59
2024/01/29 06:35:18;;;;;;;11.60;9.23;;;;;;;2.96;100.00;146801.81;5114766;28;20176;-59
2024/01/29 06:37:45;;;;;;;11.13;10.23;;;;;;;2.95;100.00;146799.28;5115206;28;20697;-60
2024/01/29 06:40:13;;;;;;;11.00;10.00;;;;;;;3.07;100.00;146829.44;5115172;28;20607;-59
2024/01/29 06:42:41;;;;;;;9.90;9.20;;;;;;;3.10;100.00;146836.97;5115070;28;20187;-60
2024/01/29 06:45:28;;;;;;;10.93;9.90;;;;;;;2.94;100.00;146796.78;5114812;28;20343;-60
2024/01/29 06:47:56;;;;;;;10.37;9.57;;;;;;;3.20;100.00;146862.09;5113469;28;20205;-60
2024/01/29 06:50:23;;;;;;;11.50;10.37;;;;;;;3.10;100.00;146836.97;5114480;27;20194;-59
2024/01/29 06:52:51;;;;;;;11.77;10.47;;;;;;;3.10;100.00;146835.69;5114540;28;20188;-60
2024/01/29 06:55:20;;;;;;;12.97;10.87;;;;;;;3.17;100.00;146854.56;5114354;28;20266;-59
2024/01/29 06:57:48;;;;;;;10.97;10.07;;;;;;;3.18;100.00;146855.84;5114394;28;20193;-59
2024/01/29 07:00:16;;;;;;;12.23;11.20;;;;;;;3.27;100.00;146878.41;5114194;28;20190;-59
2024/01/29 07:02:43;;;;;;;13.17;10.53;;;;;;;3.14;100.00;146845.78;5114794;28;20513;-60
2024/01/29 07:05:11;;;;;;;11.10;10.20;;;;;;;3.30;100.00;146884.72;5114318;28;20195;-60
2024/01/29 07:07:38;;;;;;;11.00;10.00;;;;;;;3.48;100.00;146929.97;5114643;27;20225;-61
2024/01/29 07:10:06;;;;;;;13.97;11.67;;;;;;;3.67;100.00;146977.69;5113863;28;20275;-60
2024/01/29 07:12:33;;;;;;;12.57;11.27;;;;;;;3.94;100.00;147045.59;5113865;28;20191;-59
2024/01/29 07:15:02;;;;;;;13.07;11.77;;;;;;;4.55;100.00;147197.69;5114174;28;20188;-59
2024/01/29 07:17:30;;;;;;;14.37;12.07;;;;;;;5.00;100.00;147309.69;5113928;27;20207;-60
2024/01/29 07:19:57;;;;;;;11.97;10.77;;;;;;;5.37;100.00;147401.53;5113998;28;20187;-59
2024/01/29 07:22:24;;;;;;;27.73;11.60;;;;;;;5.89;100.00;147530.00;5113997;28;20195;-59
2024/01/29 07:24:52;;;;;;;11.70;10.77;;;;;;;6.29;100.00;147629.47;5113802;28;20658;-60
2024/01/29 07:27:19;;;;;;;11.33;10.27;;;;;;;5.92;100.00;147537.53;5113547;28;20187;-59
2024/01/29 07:29:46;;;;;;;13.33;12.03;;;;;;;5.75;100.00;147494.69;5114105;28;20187;-60
2024/01/29 07:32:14;;;;;;;12.13;10.87;;;;;;;5.73;100.00;147490.88;5113509;28;20187;-60
2024/01/29 07:34:41;;;;;;;24.00;13.17;;;;;;;5.89;100.00;147530.00;5114061;28;20514;-60
2024/01/29 07:37:08;;;;;;;12.90;11.20;;;;;;;6.07;100.00;147575.28;5113606;28;20229;-60
2024/01/29 07:39:35;;;;;;;16.27;11.20;;;;;;;6.51;100.00;147683.63;5102854;28;20192;-58
2024/01/29 07:42:02;;;;;;;65.67;15.77;;;;;;;6.68;100.00;147727.75;5113876;28;20180;-60
2024/01/29 07:44:30;;;;;;;11.93;11.13;;;;;;;6.76;100.00;147747.91;5113877;28;20184;-61
2024/01/29 07:46:57;;;;;;;12.17;10.93;;;;;;;6.00;100.00;147557.69;5113863;28;20230;-62
2024/01/29 07:49:27;;;;;;;12.70;11.53;;;;;;;5.65;100.00;147470.75;5113547;28;20191;-61
2024/01/29 07:51:54;;;;;;;12.17;11.03;;;;;;;5.52;100.00;147438.00;5113141;28;20183;-59
2024/01/29 07:54:21;;;;;;;16.73;12.63;;;;;;;5.06;100.00;147324.75;5113443;28;21015;-61
2024/01/29 07:56:48;;;;;;;13.53;12.17;;;;;;;5.25;100.00;147370.06;5113115;28;20205;-61
2024/01/29 07:59:15;;;;;;;13.17;11.83;;;;;;;5.17;100.00;147349.94;5112862;28;20233;-61
2024/01/29 08:01:44;;;;;;;14.43;12.37;;;;;;;4.66;100.00;147224.13;5113421;28;20195;-60
2024/01/29 08:04:11;;;;;;;14.57;13.27;;;;;;;5.00;100.00;147309.69;5113125;28;20233;-60
2024/01/29 08:06:41;;;;;;;20.13;13.57;;;;;;;4.84;100.00;147269.41;5112928;28;20272;-61
2024/01/29 08:09:08;;;;;;;27.83;14.83;;;;;;;4.88;100.00;147279.47;5112569;28;20307;-62
2024/01/29 08:11:36;;;;;;;16.67;13.37;;;;;;;4.87;100.00;147276.97;5113028;28;20592;-61
2024/01/29 08:14:03;;;;;;;17.07;13.17;;;;;;;4.96;100.00;147299.63;5113169;28;20183;-62
2024/01/29 08:16:30;;;;;;;18.67;13.07;;;;;;;4.70;100.00;147232.94;5113537;28;20714;-62
2024/01/29 08:18:58;;;;;;;27.77;14.93;;;;;;;4.81;100.00;147261.84;5114005;28;20271;-63
2024/01/29 08:21:25;;;;;;;25.73;14.60;;;;;;;4.64;100.00;147219.09;5113732;28;20637;-60
2024/01/29 08:23:54;;;;;;;18.90;13.43;;;;;;;4.50;100.00;147185.13;5113218;28;20654;-62
2024/01/29 08:26:21;;;;;;;17.90;13.70;;;;;;;4.58;100.00;147204.03;5113536;28;20562;-62
2024/01/29 08:28:48;;;;;;;23.50;13.67;;;;;;;4.54;100.00;147193.97;5113989;28;20187;-62
2024/01/29 08:31:15;;;;;;;25.00;15.53;;;;;;;4.53;100.00;147191.44;5114295;28;20183;-62
2024/01/29 08:33:43;;;;;;;17.73;14.20;;;;;;;4.57;100.00;147201.50;5113801;28;20604;-62
2024/01/29 08:36:10;;;;;;;23.03;14.67;;;;;;;4.48;100.00;147178.84;5113017;28;20187;-62
2024/01/29 08:38:37;;;;;;;17.10;13.70;;;;;;;4.47;100.00;147177.59;5113414;28;20187;-61
2024/01/29 08:41:06;;;;;;;28.37;14.80;;;;;;;4.27;100.00;147126.03;5113624;28;20199;-61
2024/01/29 08:43:33;;;;;;;16.80;12.77;;;;;;;4.33;100.00;147142.34;5113067;28;20271;-62
2024/01/29 08:46:00;;;;;;;15.37;13.10;;;;;;;4.28;100.00;147128.56;5113325;28;20235;-61
2024/01/29 08:48:27;;;;;;;16.97;12.87;;;;;;;4.21;100.00;147110.91;5112874;28;20203;-59
2024/01/29 08:50:54;;;;;;;16.87;12.90;;;;;;;4.22;100.00;147113.44;5112820;28;20555;-62
2024/01/29 08:53:21;;;;;;;16.70;14.07;;;;;;;4.16;100.00;147098.38;5112402;28;20186;-58
2024/01/29 08:55:48;;;;;;;15.07;13.27;;;;;;;4.20;100.00;147109.66;5108645;28;20770;-62
2024/01/29 08:58:17;;;;;;;15.40;13.80;;;;;;;4.26;100.00;147124.78;5113076;28;20184;-62
2024/01/29 09:00:44;;;;;;;16.13;12.83;;;;;;;4.30;100.00;147133.56;5112244;28;20287;-59
2024/01/29 09:03:11;;;;;;;19.53;14.50;;;;;;;4.36;100.00;147148.69;5112439;28;20206;-59
2024/01/29 09:05:39;;;;;;;15.77;14.07;;;;;;;4.16;100.00;147099.59;5112411;28;20687;-58
2024/01/29 09:08:06;;;;;;;30.80;15.90;;;;;;;4.08;100.00;147079.50;5112099;28;20183;-58
2024/01/29 09:10:33;;;;;;;21.57;14.23;;;;;;;3.98;100.00;147054.38;5112241;28;20702;-59
2024/01/29 09:13:00;;;;;;;25.10;15.53;;;;;;;3.90;100.00;147034.28;5111933;28;20238;-58
2024/01/29 09:15:29;;;;;;;15.83;13.57;;;;;;;3.87;100.00;147026.69;5112760;28;20607;-57
2024/01/29 09:17:56;;;;;;;97.43;53.83;;;;;;;3.90;100.00;147034.28;5111835;28;20183;-58
2024/01/29 09:20:23;;;;;;;20.23;15.40;;;;;;;4.11;100.00;147087.06;5112093;28;20187;-58
2024/01/29 09:22:50;;;;;;;15.10;13.37;;;;;;;4.19;100.00;147105.91;5111855;28;20224;-59
2024/01/29 09:25:17;;;;;;;60.50;16.20;;;;;;;4.02;100.00;147065.69;5111989;28;20655;-60
2024/01/29 09:27:45;;;;;;;21.27;14.47;;;;;;;3.97;100.00;147053.13;5113617;28;20187;-58
2024/01/29 09:30:12;;;;;;;16.00;13.40;;;;;;;3.80;100.00;147010.38;5111708;28;20183;-59
2024/01/29 09:32:41;;;;;;;17.10;15.17;;;;;;;4.03;100.00;147066.97;5111897;28;20190;-58
2024/01/29 09:35:10;;;;;;;29.23;15.67;;;;;;;4.14;100.00;147095.84;5111970;28;20184;-58
2024/01/29 09:37:39;;;;;;;14.67;13.20;;;;;;;4.30;100.00;147133.56;5111513;28;20230;-58
2024/01/29 09:40:11;;;;;;;18.50;14.70;;;;;;;4.42;100.00;147165.00;5111856;28;20212;-58
2024/01/29 09:42:41;;;;;;;20.10;13.63;;;;;;;4.54;100.00;147195.16;5111827;28;20607;-59
2024/01/29 09:45:11;;;;;;;23.83;13.50;;;;;;;4.39;100.00;147156.22;5111747;28;20515;-59
2024/01/29 09:47:41;;;;;;;22.30;13.43;;;;;;;4.31;100.00;147137.34;5111864;28;20237;-59
2024/01/29 09:50:10;;;;;;;32.60;15.03;;;;;;;4.37;100.00;147152.41;5111940;27;20252;-59
2024/01/29 09:52:40;;;;;;;21.97;13.47;;;;;;;4.54;100.00;147193.97;5111715;28;20190;-58
2024/01/29 09:55:11;;;;;;;39.03;16.13;;;;;;;4.71;100.00;147235.47;5111590;28;20246;-59
2024/01/29 09:57:39;;;;;;;19.50;13.90;;;;;;;4.84;100.00;147269.41;5111750;28;20637;-59
2024/01/29 10:00:08;;;;;;;15.87;12.83;;;;;;;4.79;100.00;147256.84;5111481;28;20187;-58
2024/01/29 10:02:36;;;;;;;14.90;13.37;;;;;;;4.68;100.00;147229.16;5112066;28;20629;-58
2024/01/29 10:05:08;;;;;;;14.77;13.33;;;;;;;4.86;100.00;147273.19;5112074;28;20183;-59
2024/01/29 10:07:37;;;;;;;17.00;12.93;;;;;;;4.77;100.00;147251.78;5112475;28;20650;-61
2024/01/29 10:10:07;;;;;;;14.50;13.10;;;;;;;4.79;100.00;147255.59;5111472;28;20183;-58
2024/01/29 10:12:34;;;;;;;13.13;11.97;;;;;;;4.23;100.00;147115.97;5111538;28;20187;-58
2024/01/29 10:15:01;;;;;;;34.00;15.13;;;;;;;4.73;100.00;147241.72;5111507;28;20252;-58
2024/01/29 10:17:29;;;;;;;20.97;14.40;;;;;;;4.87;100.00;147276.97;5111843;28;20187;-59
2024/01/29 10:19:56;;;;;;;15.73;13.33;;;;;;;4.91;100.00;147285.78;5112080;28;20720;-59
2024/01/29 10:22:26;;;;;;;20.03;14.77;;;;;;;4.91;100.00;147287.03;5113042;28;20236;-58
2024/01/29 10:25:03;;;;;;;13.43;12.23;;;;;;;4.96;100.00;147299.63;5115427;28;20183;-58
2024/01/29 10:27:31;;;;;;;23.07;14.30;;;;;;;4.98;100.00;147304.63;5115021;28;20203;-58
2024/01/29 10:29:58;;;;;;;14.93;13.50;;;;;;;4.99;100.00;147307.16;5114981;28;20191;-58
2024/01/29 10:32:25;;;;;;;24.73;13.00;;;;;;;5.06;100.00;147324.75;5115064;28;20199;-59
2024/01/29 10:34:52;;;;;;;22.47;14.73;;;;;;;5.12;100.00;147337.34;5115063;28;20217;-59
2024/01/29 10:37:22;;;;;;;21.27;13.60;;;;;;;5.13;100.00;147339.88;5114518;28;20180;-58
2024/01/29 10:39:52;;;;;;;17.13;11.97;;;;;;;5.19;100.00;147354.94;5114447;28;20240;-57
2024/01/29 10:42:21;;;;;;;13.77;12.47;;;;;;;5.15;100.00;147344.88;5114665;28;20194;-57
2024/01/29 10:44:50;;;;;;;13.43;11.33;;;;;;;4.98;100.00;147304.63;5114582;28;20303;-58
2024/01/29 10:47:24;;;;;;;19.40;12.50;;;;;;;4.94;100.00;147294.56;5114413;28;20286;-58
2024/01/29 10:49:53;;;;;;;13.17;11.80;;;;;;;4.56;100.00;147198.97;5114455;28;20225;-59
2024/01/29 10:52:21;;;;;;;13.70;12.10;;;;;;;4.44;100.00;147168.78;5114501;28;20215;-60
2024/01/29 10:54:48;;;;;;;13.10;11.80;;;;;;;4.46;100.00;147175.06;5114379;28;20617;-58
2024/01/29 10:57:18;;;;;;;12.57;11.47;;;;;;;4.35;100.00;147146.16;5114310;28;20197;-57
2024/01/29 10:59:46;;;;;;;14.37;12.87;;;;;;;4.27;100.00;147127.28;5114102;28;20252;-58
2024/01/29 11:02:15;;;;;;;23.13;13.63;;;;;;;4.26;100.00;147123.50;5114295;28;20279;-58
2024/01/29 11:04:42;;;;;;;17.27;13.53;;;;;;;4.26;100.00;147123.50;5114587;28;20196;-58
2024/01/29 11:07:15;;;;;;;26.37;13.93;;;;;;;4.18;100.00;147104.66;5114266;28;20627;-61
2024/01/29 11:09:49;;;;;;;16.87;13.67;;;;;;;4.19;100.00;147105.91;5114019;28;20203;-60
2024/01/29 11:12:18;;;;;;;45.27;23.13;;;;;;;4.33;100.00;147141.13;5114392;28;20183;-60
2024/01/29 11:14:57;;;;;;;18.27;14.03;;;;;;;4.55;100.00;147196.44;5114083;28;20220;-60